sensor_id;sensor_type;location;lat;lon;timestamp;temperature;humidity
20291;DHT22;10304;51.074;13.754;2023-08-12T00:02:02;21.50;1.00
20291;DHT22;10304;51.074;13.754;2023-08-12T00:04:29;21.40;12.20
20291;DHT22;10304;51.074;13.754;2023-08-12T00:06:56;21.40;12.30
20291;DHT22;10304;51.074;13.754;2023-08-12T00:09:22;21.30;30.00
20291;DHT22;10304;51.074;13.754;2023-08-12T00:11:49;21.30;99.90
20291;DHT22;10304;51.074;13.754;2023-08-12T00:14:16;21.30;99.90
20291;DHT22;10304;51.074;13.754;2023-08-12T00:16:42;21.30;99.90
20291;DHT22;10304;51.074;13.754;2023-08-12T00:19:09;21.30;99.90
20291;DHT22;10304;51.074;13.754;2023-08-12T00:21:36;21.20;99.90
20291;DHT22;10304;51.074;13.754;2023-08-12T00:24:03;21.20;99.90
20291;DHT22;10304;51.074;13.754;2023-08-12T00:26:30;21.20;99.90
20291;DHT22;10304;51.074;13.754;2023-08-12T00:28:56;21.10;99.90
20291;DHT22;10304;51.074;13.754;2023-08-12T00:31:23;21.10;99.90
20291;DHT22;10304;51.074;13.754;2023-08-12T00:33:50;21.00;99.90
20291;DHT22;10304;51.074;13.754;2023-08-12T00:36:17;21.00;99.90
20291;DHT22;10304;51.074;13.754;2023-08-12T00:38:43;21.00;99.90
20291;DHT22;10304;51.074;13.754;2023-08-12T00:41:10;21.00;99.90
20291;DHT22;10304;51.074;13.754;2023-08-12T00:43:37;21.00;1.00
20291;DHT22;10304;51.074;13.754;2023-08-12T00:46:04;20.90;1.00
20291;DHT22;10304;51.074;13.754;2023-08-12T00:48:31;20.80;1.00
20291;DHT22;10304;51.074;13.754;2023-08-12T00:50:58;20.80;1.00
20291;DHT22;10304;51.074;13.754;2023-08-12T00:53:24;20.70;1.00
20291;DHT22;10304;51.074;13.754;2023-08-12T00:55:51;20.70;1.00
20291;DHT22;10304;51.074;13.754;2023-08-12T00:58:18;20.70;1.00
20291;DHT22;10304;51.074;13.754;2023-08-12T01:00:45;20.60;1.00
20291;DHT22;10304;51.074;13.754;2023-08-12T01:03:12;20.60;1.00
20291;DHT22;10304;51.074;13.754;2023-08-12T01:05:39;20.60;1.00
20291;DHT22;10304;51.074;13.754;2023-08-12T01:08:07;20.60;1.00
20291;DHT22;10304;51.074;13.754;2023-08-12T01:10:36;20.50;1.00
20291;DHT22;10304;51.074;13.754;2023-08-12T01:15:44;20.50;1.00
20291;DHT22;10304;51.074;13.754;2023-08-12T01:18:12;20.50;1.00
20291;DHT22;10304;51.074;13.754;2023-08-12T01:20:40;20.50;1.00
20291;DHT22;10304;51.074;13.754;2023-08-12T01:23:14;20.40;1.00
20291;DHT22;10304;51.074;13.754;2023-08-12T01:25:41;20.40;1.00
20291;DHT22;10304;51.074;13.754;2023-08-12T01:28:08;20.40;11.40
20291;DHT22;10304;51.074;13.754;2023-08-12T01:30:43;20.40;22.10
20291;DHT22;10304;51.074;13.754;2023-08-12T01:33:22;20.40;67.90
20291;DHT22;10304;51.074;13.754;2023-08-12T01:36:09;20.30;51.80
20291;DHT22;10304;51.074;13.754;2023-08-12T01:38:38;20.30;99.90
20291;DHT22;10304;51.074;13.754;2023-08-12T01:41:09;20.30;99.90
20291;DHT22;10304;51.074;13.754;2023-08-12T01:43:36;20.30;99.90
20291;DHT22;10304;51.074;13.754;2023-08-12T01:46:03;20.30;99.90
20291;DHT22;10304;51.074;13.754;2023-08-12T01:48:33;20.20;99.90
20291;DHT22;10304;51.074;13.754;2023-08-12T01:50:59;20.20;99.90
20291;DHT22;10304;51.074;13.754;2023-08-12T01:53:26;20.20;99.90
20291;DHT22;10304;51.074;13.754;2023-08-12T01:55:53;20.20;99.90
20291;DHT22;10304;51.074;13.754;2023-08-12T01:58:20;20.20;1.00
20291;DHT22;10304;51.074;13.754;2023-08-12T02:00:46;20.10;1.00
20291;DHT22;10304;51.074;13.754;2023-08-12T02:03:13;20.10;1.00
20291;DHT22;10304;51.074;13.754;2023-08-12T02:05:40;20.10;1.00
20291;DHT22;10304;51.074;13.754;2023-08-12T02:08:07;20.10;1.00
20291;DHT22;10304;51.074;13.754;2023-08-12T02:10:34;20.10;1.00
20291;DHT22;10304;51.074;13.754;2023-08-12T02:13:02;20.10;1.00
20291;DHT22;10304;51.074;13.754;2023-08-12T02:15:29;20.10;1.00
20291;DHT22;10304;51.074;13.754;2023-08-12T02:17:56;20.00;1.00
20291;DHT22;10304;51.074;13.754;2023-08-12T02:20:23;20.00;1.00
20291;DHT22;10304;51.074;13.754;2023-08-12T02:22:50;20.00;1.00
20291;DHT22;10304;51.074;13.754;2023-08-12T02:25:16;19.90;1.00
20291;DHT22;10304;51.074;13.754;2023-08-12T02:27:43;19.90;1.00
20291;DHT22;10304;51.074;13.754;2023-08-12T02:30:10;19.80;1.00
20291;DHT22;10304;51.074;13.754;2023-08-12T02:32:37;19.90;1.00
20291;DHT22;10304;51.074;13.754;2023-08-12T02:35:04;19.80;1.00
20291;DHT22;10304;51.074;13.754;2023-08-12T02:37:31;19.80;1.00
20291;DHT22;10304;51.074;13.754;2023-08-12T02:39:58;19.80;1.00
20291;DHT22;10304;51.074;13.754;2023-08-12T02:42:24;19.90;1.00
20291;DHT22;10304;51.074;13.754;2023-08-12T02:44:51;19.80;1.00
20291;DHT22;10304;51.074;13.754;2023-08-12T02:47:18;19.80;40.40
20291;DHT22;10304;51.074;13.754;2023-08-12T02:49:44;19.80;39.70
20291;DHT22;10304;51.074;13.754;2023-08-12T02:52:11;19.80;1.00
20291;DHT22;10304;51.074;13.754;2023-08-12T02:54:38;19.80;1.00
20291;DHT22;10304;51.074;13.754;2023-08-12T02:57:04;19.80;1.00
20291;DHT22;10304;51.074;13.754;2023-08-12T02:59:31;19.80;1.00
20291;DHT22;10304;51.074;13.754;2023-08-12T03:01:58;19.80;51.80
20291;DHT22;10304;51.074;13.754;2023-08-12T03:04:26;19.80;8.40
20291;DHT22;10304;51.074;13.754;2023-08-12T03:06:52;19.80;99.90
20291;DHT22;10304;51.074;13.754;2023-08-12T03:09:19;19.80;1.00
20291;DHT22;10304;51.074;13.754;2023-08-12T03:11:46;19.80;57.60
20291;DHT22;10304;51.074;13.754;2023-08-12T03:14:13;19.80;99.90
20291;DHT22;10304;51.074;13.754;2023-08-12T03:16:40;19.80;21.00
20291;DHT22;10304;51.074;13.754;2023-08-12T03:19:07;19.80;99.90
20291;DHT22;10304;51.074;13.754;2023-08-12T03:21:33;19.80;39.30
20291;DHT22;10304;51.074;13.754;2023-08-12T03:24:01;19.70;42.40
20291;DHT22;10304;51.074;13.754;2023-08-12T03:26:27;19.70;99.90
20291;DHT22;10304;51.074;13.754;2023-08-12T03:28:54;19.80;51.90
20291;DHT22;10304;51.074;13.754;2023-08-12T03:31:21;19.70;1.00
20291;DHT22;10304;51.074;13.754;2023-08-12T03:33:47;19.70;1.00
20291;DHT22;10304;51.074;13.754;2023-08-12T03:36:14;19.70;1.00
20291;DHT22;10304;51.074;13.754;2023-08-12T03:38:41;19.70;16.00
20291;DHT22;10304;51.074;13.754;2023-08-12T03:41:08;19.60;99.90
20291;DHT22;10304;51.074;13.754;2023-08-12T03:43:35;19.60;99.90
20291;DHT22;10304;51.074;13.754;2023-08-12T03:46:03;19.60;99.90
20291;DHT22;10304;51.074;13.754;2023-08-12T03:48:29;19.60;99.90
20291;DHT22;10304;51.074;13.754;2023-08-12T03:50:56;19.50;99.90
20291;DHT22;10304;51.074;13.754;2023-08-12T03:53:23;19.50;99.90
20291;DHT22;10304;51.074;13.754;2023-08-12T03:55:49;19.50;99.90
20291;DHT22;10304;51.074;13.754;2023-08-12T03:58:16;19.50;99.90
20291;DHT22;10304;51.074;13.754;2023-08-12T04:00:43;19.50;99.90
20291;DHT22;10304;51.074;13.754;2023-08-12T04:03:10;19.50;99.90
20291;DHT22;10304;51.074;13.754;2023-08-12T04:05:38;19.50;99.90
20291;DHT22;10304;51.074;13.754;2023-08-12T04:08:12;19.50;99.90
20291;DHT22;10304;51.074;13.754;2023-08-12T04:10:39;19.50;99.90
20291;DHT22;10304;51.074;13.754;2023-08-12T04:13:06;19.50;99.90
20291;DHT22;10304;51.074;13.754;2023-08-12T04:15:33;19.50;99.90
20291;DHT22;10304;51.074;13.754;2023-08-12T04:17:59;19.60;99.90
20291;DHT22;10304;51.074;13.754;2023-08-12T04:20:27;19.60;99.90
20291;DHT22;10304;51.074;13.754;2023-08-12T04:22:53;19.60;99.90
20291;DHT22;10304;51.074;13.754;2023-08-12T04:25:21;19.60;99.90
20291;DHT22;10304;51.074;13.754;2023-08-12T04:27:48;19.60;99.90
20291;DHT22;10304;51.074;13.754;2023-08-12T04:30:18;19.60;1.00
20291;DHT22;10304;51.074;13.754;2023-08-12T04:32:45;19.70;1.00
20291;DHT22;10304;51.074;13.754;2023-08-12T04:35:12;19.70;99.90
20291;DHT22;10304;51.074;13.754;2023-08-12T04:37:39;19.70;99.90
20291;DHT22;10304;51.074;13.754;2023-08-12T04:40:06;19.80;99.90
20291;DHT22;10304;51.074;13.754;2023-08-12T04:42:35;19.80;99.90
20291;DHT22;10304;51.074;13.754;2023-08-12T04:45:02;19.80;12.10
20291;DHT22;10304;51.074;13.754;2023-08-12T04:47:30;19.90;1.00
20291;DHT22;10304;51.074;13.754;2023-08-12T04:49:57;19.90;1.00
20291;DHT22;10304;51.074;13.754;2023-08-12T04:52:23;20.00;1.00
20291;DHT22;10304;51.074;13.754;2023-08-12T04:54:53;20.00;1.00
20291;DHT22;10304;51.074;13.754;2023-08-12T04:57:20;20.10;1.00
20291;DHT22;10304;51.074;13.754;2023-08-12T04:59:46;20.20;1.00
20291;DHT22;10304;51.074;13.754;2023-08-12T05:02:13;20.20;1.00
20291;DHT22;10304;51.074;13.754;2023-08-12T05:04:40;20.20;1.00
20291;DHT22;10304;51.074;13.754;2023-08-12T05:07:07;20.30;1.00
20291;DHT22;10304;51.074;13.754;2023-08-12T05:09:34;20.30;1.00
20291;DHT22;10304;51.074;13.754;2023-08-12T05:12:00;20.30;1.00
20291;DHT22;10304;51.074;13.754;2023-08-12T05:14:27;20.40;1.00
20291;DHT22;10304;51.074;13.754;2023-08-12T05:16:54;20.40;99.90
20291;DHT22;10304;51.074;13.754;2023-08-12T05:19:21;20.50;99.90
20291;DHT22;10304;51.074;13.754;2023-08-12T05:21:47;20.60;99.90
20291;DHT22;10304;51.074;13.754;2023-08-12T05:24:14;20.60;99.90
20291;DHT22;10304;51.074;13.754;2023-08-12T05:26:42;20.60;23.40
20291;DHT22;10304;51.074;13.754;2023-08-12T05:29:08;20.70;1.00
20291;DHT22;10304;51.074;13.754;2023-08-12T05:31:35;20.80;1.00
20291;DHT22;10304;51.074;13.754;2023-08-12T05:34:02;20.90;1.00
20291;DHT22;10304;51.074;13.754;2023-08-12T05:36:29;20.90;1.00
20291;DHT22;10304;51.074;13.754;2023-08-12T05:38:56;21.00;1.00
20291;DHT22;10304;51.074;13.754;2023-08-12T05:41:23;21.10;1.00
20291;DHT22;10304;51.074;13.754;2023-08-12T05:43:49;21.10;1.00
20291;DHT22;10304;51.074;13.754;2023-08-12T05:46:16;21.20;1.00
20291;DHT22;10304;51.074;13.754;2023-08-12T05:48:43;21.30;1.00
20291;DHT22;10304;51.074;13.754;2023-08-12T05:51:10;21.40;99.90
20291;DHT22;10304;51.074;13.754;2023-08-12T05:53:37;21.50;99.90
20291;DHT22;10304;51.074;13.754;2023-08-12T05:56:04;21.50;99.90
20291;DHT22;10304;51.074;13.754;2023-08-12T05:58:31;21.60;99.90
20291;DHT22;10304;51.074;13.754;2023-08-12T06:00:58;21.70;99.90
20291;DHT22;10304;51.074;13.754;2023-08-12T06:03:24;21.80;99.90
20291;DHT22;10304;51.074;13.754;2023-08-12T06:05:51;21.90;49.70
20291;DHT22;10304;51.074;13.754;2023-08-12T06:08:18;22.00;2.50
20291;DHT22;10304;51.074;13.754;2023-08-12T06:10:45;22.20;1.00
20291;DHT22;10304;51.074;13.754;2023-08-12T06:13:11;22.30;1.00
20291;DHT22;10304;51.074;13.754;2023-08-12T06:15:38;22.30;1.00
20291;DHT22;10304;51.074;13.754;2023-08-12T06:18:05;22.40;1.00
20291;DHT22;10304;51.074;13.754;2023-08-12T06:20:32;22.60;1.00
20291;DHT22;10304;51.074;13.754;2023-08-12T06:22:59;22.70;1.00
20291;DHT22;10304;51.074;13.754;2023-08-12T06:25:26;22.80;1.00
20291;DHT22;10304;51.074;13.754;2023-08-12T06:27:53;22.90;1.00
20291;DHT22;10304;51.074;13.754;2023-08-12T06:30:19;23.00;1.00
20291;DHT22;10304;51.074;13.754;2023-08-12T06:32:46;23.10;1.00
20291;DHT22;10304;51.074;13.754;2023-08-12T06:35:13;23.30;1.00
20291;DHT22;10304;51.074;13.754;2023-08-12T06:37:40;23.40;99.90
20291;DHT22;10304;51.074;13.754;2023-08-12T06:40:08;23.50;99.90
20291;DHT22;10304;51.074;13.754;2023-08-12T06:42:35;23.60;99.90
20291;DHT22;10304;51.074;13.754;2023-08-12T06:45:02;23.70;99.90
20291;DHT22;10304;51.074;13.754;2023-08-12T06:47:30;23.80;99.90
20291;DHT22;10304;51.074;13.754;2023-08-12T06:49:57;23.80;99.90
20291;DHT22;10304;51.074;13.754;2023-08-12T06:52:24;23.90;99.90
20291;DHT22;10304;51.074;13.754;2023-08-12T06:54:51;24.00;99.90
20291;DHT22;10304;51.074;13.754;2023-08-12T06:57:17;24.10;99.90
20291;DHT22;10304;51.074;13.754;2023-08-12T06:59:44;24.20;99.90
20291;DHT22;10304;51.074;13.754;2023-08-12T07:02:11;24.30;99.90
20291;DHT22;10304;51.074;13.754;2023-08-12T07:04:39;24.30;99.90
20291;DHT22;10304;51.074;13.754;2023-08-12T07:07:05;24.40;99.90
20291;DHT22;10304;51.074;13.754;2023-08-12T07:09:32;24.50;99.90
20291;DHT22;10304;51.074;13.754;2023-08-12T07:11:59;24.60;99.90
20291;DHT22;10304;51.074;13.754;2023-08-12T07:14:28;24.70;99.90
20291;DHT22;10304;51.074;13.754;2023-08-12T07:16:55;24.70;99.90
20291;DHT22;10304;51.074;13.754;2023-08-12T07:19:22;24.80;99.90
20291;DHT22;10304;51.074;13.754;2023-08-12T07:21:49;24.90;99.90
20291;DHT22;10304;51.074;13.754;2023-08-12T07:24:15;24.90;99.90
20291;DHT22;10304;51.074;13.754;2023-08-12T07:26:42;24.90;99.90
20291;DHT22;10304;51.074;13.754;2023-08-12T07:29:09;25.00;99.90
20291;DHT22;10304;51.074;13.754;2023-08-12T07:31:36;25.10;99.90
20291;DHT22;10304;51.074;13.754;2023-08-12T07:34:03;25.10;99.90
20291;DHT22;10304;51.074;13.754;2023-08-12T07:36:31;25.20;99.70
20291;DHT22;10304;51.074;13.754;2023-08-12T07:38:57;25.30;99.90
20291;DHT22;10304;51.074;13.754;2023-08-12T07:41:24;25.40;99.90
20291;DHT22;10304;51.074;13.754;2023-08-12T07:43:54;25.50;99.90
20291;DHT22;10304;51.074;13.754;2023-08-12T07:46:20;25.60;91.70
20291;DHT22;10304;51.074;13.754;2023-08-12T07:48:47;25.70;93.10
20291;DHT22;10304;51.074;13.754;2023-08-12T07:51:14;25.80;49.90
20291;DHT22;10304;51.074;13.754;2023-08-12T07:53:41;26.00;28.50
20291;DHT22;10304;51.074;13.754;2023-08-12T07:56:08;26.10;30.00
20291;DHT22;10304;51.074;13.754;2023-08-12T07:58:35;26.20;16.90
20291;DHT22;10304;51.074;13.754;2023-08-12T08:01:01;26.30;9.90
20291;DHT22;10304;51.074;13.754;2023-08-12T08:03:28;26.40;1.00
20291;DHT22;10304;51.074;13.754;2023-08-12T08:05:55;26.50;1.00
20291;DHT22;10304;51.074;13.754;2023-08-12T08:08:22;26.60;1.00
20291;DHT22;10304;51.074;13.754;2023-08-12T08:10:48;26.70;1.00
20291;DHT22;10304;51.074;13.754;2023-08-12T08:13:15;26.90;1.00
20291;DHT22;10304;51.074;13.754;2023-08-12T08:15:42;27.00;1.00
20291;DHT22;10304;51.074;13.754;2023-08-12T08:18:09;27.10;1.00
20291;DHT22;10304;51.074;13.754;2023-08-12T08:20:36;27.20;1.00
20291;DHT22;10304;51.074;13.754;2023-08-12T08:23:02;27.40;1.00
20291;DHT22;10304;51.074;13.754;2023-08-12T08:25:29;27.40;1.00
20291;DHT22;10304;51.074;13.754;2023-08-12T08:27:56;27.60;1.00
20291;DHT22;10304;51.074;13.754;2023-08-12T08:30:23;27.70;1.00
20291;DHT22;10304;51.074;13.754;2023-08-12T08:32:51;27.80;1.00
20291;DHT22;10304;51.074;13.754;2023-08-12T08:35:18;27.90;1.00
20291;DHT22;10304;51.074;13.754;2023-08-12T08:37:45;28.00;1.00
20291;DHT22;10304;51.074;13.754;2023-08-12T08:40:12;28.20;1.00
20291;DHT22;10304;51.074;13.754;2023-08-12T08:42:40;28.20;1.00
20291;DHT22;10304;51.074;13.754;2023-08-12T08:45:12;28.30;1.00
20291;DHT22;10304;51.074;13.754;2023-08-12T08:47:39;28.50;1.00
20291;DHT22;10304;51.074;13.754;2023-08-12T08:50:08;28.70;1.00
20291;DHT22;10304;51.074;13.754;2023-08-12T08:52:36;28.80;1.00
20291;DHT22;10304;51.074;13.754;2023-08-12T08:55:04;29.00;1.00
20291;DHT22;10304;51.074;13.754;2023-08-12T08:57:34;29.20;1.00
20291;DHT22;10304;51.074;13.754;2023-08-12T09:00:14;29.30;1.00
20291;DHT22;10304;51.074;13.754;2023-08-12T09:02:47;29.50;1.00
20291;DHT22;10304;51.074;13.754;2023-08-12T09:05:17;29.60;1.00
20291;DHT22;10304;51.074;13.754;2023-08-12T09:07:45;29.80;1.00
20291;DHT22;10304;51.074;13.754;2023-08-12T09:10:13;29.90;1.00
20291;DHT22;10304;51.074;13.754;2023-08-12T09:12:42;30.10;1.00
20291;DHT22;10304;51.074;13.754;2023-08-12T09:15:09;30.20;1.00
20291;DHT22;10304;51.074;13.754;2023-08-12T09:17:37;30.40;1.00
20291;DHT22;10304;51.074;13.754;2023-08-12T09:20:04;30.50;1.00
20291;DHT22;10304;51.074;13.754;2023-08-12T09:22:39;30.70;1.00
20291;DHT22;10304;51.074;13.754;2023-08-12T09:25:07;31.00;1.00
20291;DHT22;10304;51.074;13.754;2023-08-12T09:27:36;31.20;1.00
20291;DHT22;10304;51.074;13.754;2023-08-12T09:30:04;31.40;1.00
20291;DHT22;10304;51.074;13.754;2023-08-12T09:32:31;31.60;1.00
20291;DHT22;10304;51.074;13.754;2023-08-12T09:35:01;31.90;1.00
20291;DHT22;10304;51.074;13.754;2023-08-12T09:37:29;32.20;1.00
20291;DHT22;10304;51.074;13.754;2023-08-12T09:39:56;32.40;1.00
20291;DHT22;10304;51.074;13.754;2023-08-12T09:42:23;32.70;1.00
20291;DHT22;10304;51.074;13.754;2023-08-12T09:44:50;32.90;1.00
20291;DHT22;10304;51.074;13.754;2023-08-12T09:47:16;33.20;1.00
20291;DHT22;10304;51.074;13.754;2023-08-12T09:49:43;33.40;1.00
20291;DHT22;10304;51.074;13.754;2023-08-12T09:52:10;33.70;1.00
20291;DHT22;10304;51.074;13.754;2023-08-12T09:54:38;34.00;1.00
20291;DHT22;10304;51.074;13.754;2023-08-12T09:57:08;34.20;1.00
20291;DHT22;10304;51.074;13.754;2023-08-12T09:59:38;34.50;1.00
20291;DHT22;10304;51.074;13.754;2023-08-12T10:02:11;34.70;1.00
20291;DHT22;10304;51.074;13.754;2023-08-12T10:04:42;34.80;1.00
20291;DHT22;10304;51.074;13.754;2023-08-12T10:07:11;34.90;1.00
20291;DHT22;10304;51.074;13.754;2023-08-12T10:09:39;35.00;1.00
20291;DHT22;10304;51.074;13.754;2023-08-12T10:12:08;34.90;1.00
20291;DHT22;10304;51.074;13.754;2023-08-12T10:14:36;34.80;1.00
20291;DHT22;10304;51.074;13.754;2023-08-12T10:17:03;34.80;1.00
20291;DHT22;10304;51.074;13.754;2023-08-12T10:19:33;34.80;1.00
20291;DHT22;10304;51.074;13.754;2023-08-12T10:22:02;34.70;1.00
20291;DHT22;10304;51.074;13.754;2023-08-12T10:24:30;34.60;1.00
20291;DHT22;10304;51.074;13.754;2023-08-12T10:26:57;34.40;1.00
20291;DHT22;10304;51.074;13.754;2023-08-12T10:29:24;34.30;1.00
20291;DHT22;10304;51.074;13.754;2023-08-12T10:31:51;34.20;1.00
20291;DHT22;10304;51.074;13.754;2023-08-12T10:34:23;34.20;1.00
20291;DHT22;10304;51.074;13.754;2023-08-12T10:36:54;34.10;1.00
20291;DHT22;10304;51.074;13.754;2023-08-12T10:39:31;34.00;1.00
20291;DHT22;10304;51.074;13.754;2023-08-12T10:41:58;34.00;1.00
20291;DHT22;10304;51.074;13.754;2023-08-12T10:44:27;33.90;1.00
20291;DHT22;10304;51.074;13.754;2023-08-12T10:47:08;33.80;1.00
20291;DHT22;10304;51.074;13.754;2023-08-12T10:49:43;33.70;1.00
20291;DHT22;10304;51.074;13.754;2023-08-12T10:52:31;33.60;1.00
20291;DHT22;10304;51.074;13.754;2023-08-12T10:55:22;33.50;1.00
20291;DHT22;10304;51.074;13.754;2023-08-12T10:57:51;33.40;1.00
20291;DHT22;10304;51.074;13.754;2023-08-12T11:00:26;33.40;1.00
20291;DHT22;10304;51.074;13.754;2023-08-12T11:02:55;33.40;1.00
20291;DHT22;10304;51.074;13.754;2023-08-12T11:05:23;33.30;1.00
20291;DHT22;10304;51.074;13.754;2023-08-12T11:07:58;33.40;1.00
20291;DHT22;10304;51.074;13.754;2023-08-12T11:10:30;33.30;1.00
20291;DHT22;10304;51.074;13.754;2023-08-12T11:13:01;33.40;1.00
20291;DHT22;10304;51.074;13.754;2023-08-12T11:17:58;33.60;1.00
20291;DHT22;10304;51.074;13.754;2023-08-12T11:20:27;33.80;1.00
20291;DHT22;10304;51.074;13.754;2023-08-12T11:22:56;34.00;1.00
20291;DHT22;10304;51.074;13.754;2023-08-12T11:25:25;34.20;1.00
20291;DHT22;10304;51.074;13.754;2023-08-12T11:27:52;34.40;1.00
20291;DHT22;10304;51.074;13.754;2023-08-12T11:30:20;34.40;1.00
20291;DHT22;10304;51.074;13.754;2023-08-12T11:32:49;34.50;1.00
20291;DHT22;10304;51.074;13.754;2023-08-12T11:35:17;34.50;1.00
20291;DHT22;10304;51.074;13.754;2023-08-12T11:37:49;34.50;1.00
20291;DHT22;10304;51.074;13.754;2023-08-12T11:40:17;34.40;1.00
20291;DHT22;10304;51.074;13.754;2023-08-12T11:42:47;34.40;1.00
20291;DHT22;10304;51.074;13.754;2023-08-12T11:45:21;34.30;1.00
20291;DHT22;10304;51.074;13.754;2023-08-12T11:47:48;34.20;1.00
20291;DHT22;10304;51.074;13.754;2023-08-12T11:50:25;34.00;1.00
20291;DHT22;10304;51.074;13.754;2023-08-12T11:52:53;33.90;1.00
20291;DHT22;10304;51.074;13.754;2023-08-12T11:55:21;33.80;1.00
20291;DHT22;10304;51.074;13.754;2023-08-12T11:57:50;33.70;1.00
20291;DHT22;10304;51.074;13.754;2023-08-12T12:00:17;33.70;1.00
20291;DHT22;10304;51.074;13.754;2023-08-12T12:05:14;33.80;1.00
20291;DHT22;10304;51.074;13.754;2023-08-12T12:07:41;33.90;1.00
20291;DHT22;10304;51.074;13.754;2023-08-12T12:10:12;34.40;1.00
20291;DHT22;10304;51.074;13.754;2023-08-12T12:12:38;34.80;1.00
20291;DHT22;10304;51.074;13.754;2023-08-12T12:15:06;35.20;1.00
20291;DHT22;10304;51.074;13.754;2023-08-12T12:17:38;35.60;1.00
20291;DHT22;10304;51.074;13.754;2023-08-12T12:20:07;36.00;1.00
20291;DHT22;10304;51.074;13.754;2023-08-12T12:22:37;36.40;1.00
20291;DHT22;10304;51.074;13.754;2023-08-12T12:25:10;36.80;1.00
20291;DHT22;10304;51.074;13.754;2023-08-12T12:27:37;37.00;1.00
20291;DHT22;10304;51.074;13.754;2023-08-12T12:30:08;37.30;1.00
20291;DHT22;10304;51.074;13.754;2023-08-12T12:32:35;37.50;1.00
20291;DHT22;10304;51.074;13.754;2023-08-12T12:35:02;37.60;1.00
20291;DHT22;10304;51.074;13.754;2023-08-12T12:37:30;37.70;1.00
20291;DHT22;10304;51.074;13.754;2023-08-12T12:39:57;37.70;1.00
20291;DHT22;10304;51.074;13.754;2023-08-12T12:42:24;37.90;1.00
20291;DHT22;10304;51.074;13.754;2023-08-12T12:44:51;37.90;1.00
20291;DHT22;10304;51.074;13.754;2023-08-12T12:47:18;37.90;1.00
20291;DHT22;10304;51.074;13.754;2023-08-12T12:49:45;37.90;1.00
20291;DHT22;10304;51.074;13.754;2023-08-12T12:52:12;38.00;1.00
20291;DHT22;10304;51.074;13.754;2023-08-12T12:54:39;38.20;1.00
20291;DHT22;10304;51.074;13.754;2023-08-12T12:57:06;38.30;1.00
20291;DHT22;10304;51.074;13.754;2023-08-12T12:59:33;38.50;1.00
20291;DHT22;10304;51.074;13.754;2023-08-12T13:01:59;38.60;1.00
20291;DHT22;10304;51.074;13.754;2023-08-12T13:04:26;38.70;1.00
20291;DHT22;10304;51.074;13.754;2023-08-12T13:06:53;38.70;1.00
20291;DHT22;10304;51.074;13.754;2023-08-12T13:09:20;38.50;1.00
20291;DHT22;10304;51.074;13.754;2023-08-12T13:11:46;38.40;1.00
20291;DHT22;10304;51.074;13.754;2023-08-12T13:14:13;38.20;1.00
20291;DHT22;10304;51.074;13.754;2023-08-12T13:16:40;38.00;1.00
20291;DHT22;10304;51.074;13.754;2023-08-12T13:19:07;37.80;1.00
20291;DHT22;10304;51.074;13.754;2023-08-12T13:21:33;37.50;1.00
20291;DHT22;10304;51.074;13.754;2023-08-12T13:24:00;37.40;1.00
20291;DHT22;10304;51.074;13.754;2023-08-12T13:26:30;37.10;1.00
20291;DHT22;10304;51.074;13.754;2023-08-12T13:28:57;36.90;1.00
20291;DHT22;10304;51.074;13.754;2023-08-12T13:31:23;36.80;1.00
20291;DHT22;10304;51.074;13.754;2023-08-12T13:33:50;36.70;1.00
20291;DHT22;10304;51.074;13.754;2023-08-12T13:36:17;36.50;1.00
20291;DHT22;10304;51.074;13.754;2023-08-12T13:38:44;36.60;1.00
20291;DHT22;10304;51.074;13.754;2023-08-12T13:41:11;36.60;1.00
20291;DHT22;10304;51.074;13.754;2023-08-12T13:43:37;36.70;1.00
20291;DHT22;10304;51.074;13.754;2023-08-12T13:46:04;36.80;1.00
20291;DHT22;10304;51.074;13.754;2023-08-12T13:48:31;36.80;1.00
20291;DHT22;10304;51.074;13.754;2023-08-12T13:50:57;36.90;1.00
20291;DHT22;10304;51.074;13.754;2023-08-12T13:53:27;37.00;1.00
20291;DHT22;10304;51.074;13.754;2023-08-12T13:55:54;37.00;1.00
20291;DHT22;10304;51.074;13.754;2023-08-12T13:58:21;37.00;1.00
20291;DHT22;10304;51.074;13.754;2023-08-12T14:00:47;36.90;1.00
20291;DHT22;10304;51.074;13.754;2023-08-12T14:03:14;37.10;1.00
20291;DHT22;10304;51.074;13.754;2023-08-12T14:05:42;37.30;1.00
20291;DHT22;10304;51.074;13.754;2023-08-12T14:08:09;37.40;1.00
20291;DHT22;10304;51.074;13.754;2023-08-12T14:10:35;37.40;1.00
20291;DHT22;10304;51.074;13.754;2023-08-12T14:13:02;37.50;1.00
20291;DHT22;10304;51.074;13.754;2023-08-12T14:15:29;37.70;1.00
20291;DHT22;10304;51.074;13.754;2023-08-12T14:17:56;37.70;1.00
20291;DHT22;10304;51.074;13.754;2023-08-12T14:20:23;37.70;1.00
20291;DHT22;10304;51.074;13.754;2023-08-12T14:22:49;37.90;1.00
20291;DHT22;10304;51.074;13.754;2023-08-12T14:25:16;38.00;1.00
20291;DHT22;10304;51.074;13.754;2023-08-12T14:27:43;38.10;1.00
20291;DHT22;10304;51.074;13.754;2023-08-12T14:30:10;38.00;1.00
20291;DHT22;10304;51.074;13.754;2023-08-12T14:32:37;37.80;1.00
20291;DHT22;10304;51.074;13.754;2023-08-12T14:35:04;37.80;1.00
20291;DHT22;10304;51.074;13.754;2023-08-12T14:37:32;37.80;1.00
20291;DHT22;10304;51.074;13.754;2023-08-12T14:39:58;37.90;1.00
20291;DHT22;10304;51.074;13.754;2023-08-12T14:42:25;38.00;1.00
20291;DHT22;10304;51.074;13.754;2023-08-12T14:44:52;38.20;1.00
20291;DHT22;10304;51.074;13.754;2023-08-12T14:47:19;38.30;1.00
20291;DHT22;10304;51.074;13.754;2023-08-12T14:49:45;38.30;1.00
20291;DHT22;10304;51.074;13.754;2023-08-12T14:52:20;38.40;1.00
20291;DHT22;10304;51.074;13.754;2023-08-12T14:54:47;38.60;1.00
20291;DHT22;10304;51.074;13.754;2023-08-12T14:57:14;38.80;1.00
20291;DHT22;10304;51.074;13.754;2023-08-12T14:59:41;39.00;1.00
20291;DHT22;10304;51.074;13.754;2023-08-12T15:02:07;39.30;1.00
20291;DHT22;10304;51.074;13.754;2023-08-12T15:04:34;39.60;1.00
20291;DHT22;10304;51.074;13.754;2023-08-12T15:07:02;39.80;1.00
20291;DHT22;10304;51.074;13.754;2023-08-12T15:09:28;39.90;1.00
20291;DHT22;10304;51.074;13.754;2023-08-12T15:11:56;40.00;1.00
20291;DHT22;10304;51.074;13.754;2023-08-12T15:14:23;40.00;1.00
20291;DHT22;10304;51.074;13.754;2023-08-12T15:16:49;39.80;1.00
20291;DHT22;10304;51.074;13.754;2023-08-12T15:19:16;39.70;1.00
20291;DHT22;10304;51.074;13.754;2023-08-12T15:21:43;39.70;1.00
20291;DHT22;10304;51.074;13.754;2023-08-12T15:24:09;39.60;1.00
20291;DHT22;10304;51.074;13.754;2023-08-12T15:26:36;39.40;1.00
20291;DHT22;10304;51.074;13.754;2023-08-12T15:29:03;39.20;1.00
20291;DHT22;10304;51.074;13.754;2023-08-12T15:31:30;39.10;1.00
20291;DHT22;10304;51.074;13.754;2023-08-12T15:33:57;39.10;1.00
20291;DHT22;10304;51.074;13.754;2023-08-12T15:36:23;39.20;1.00
20291;DHT22;10304;51.074;13.754;2023-08-12T15:38:50;39.10;1.00